OISY  Yasouj  Airport

Iran

Add Bookmark
ICAO OISY
Type Airport
Status Operational
Latitude
30° 42' 1" N
30.700500
Longitude
51° 32' 42" E
51.545101
Local (GMT +3.5 ) UTC
Sep 27, 2016 12:08 pm Sep 27, 2016 08:38
Sunrise-Sunset Local UTC
Begin Civil Twilight 05:30 am 02:00
Sunrise 05:54 am 02:24
Sunset 05:54 pm 14:24
End Civil Twilight 06:18 pm 14:48
VFR
VFR
MVFR
MVFR
IFR
IFR
LIFR
LIFR
Unknown
Unavailable

Current Weather

METAR Observed VFR
OISY 270800Z 33006KT CAVOK 28/M02 Q1025 Tue, Sep 27, 2016 @ 08:00 UTC
(38 Minutes ago)
Visual Flight Rules
Wind Visibility Conditions
330° at 6 knots (11 kph) 10 km or more
  • No significant weather
Temperatures Readings Precipitation
Current Temp
28°C
82°F
Dewpoint
-2°C
28°F
Humidity 14%
Altimeter 30.27" Hg
Sea Level Pressure 1,025 mb
Field Elevation
1,811 m
5,942 ft
None Recorded

Additional weather within a 92.6km radius of OISY

Map ICAO Location
OIAH 79.6km W/SW (240°)
VFR
VFR
MVFR
MVFR
IFR
IFR
LIFR
LIFR
Unknown
Unavailable
-
-

CheckWX.com is intended as a tool to help pilots better visualize weather data. It is not intended as a substitute for an official weather briefing obtained from a Flight Service Station. CheckWX.com does not meet the FAA requirements for an official pre-flight weather briefing. Therefore, it's important that pilots still call and obtain an official FSS pre-flight weather briefing.

© 2007-2016 CheckWX.com
08:38:53 UTC